sensor_id;sensor_type;location;lat;lon;timestamp;P1;durP1;ratioP1;P2;durP2;ratioP2
39930;SDS011;26635;-35.248;149.138;2023-01-01T00:01:27;2.55;;;0.80;;
39930;SDS011;26635;-35.248;149.138;2023-01-01T00:03:58;1.02;;;0.73;;
39930;SDS011;26635;-35.248;149.138;2023-01-01T00:06:29;2.53;;;1.20;;
39930;SDS011;26635;-35.248;149.138;2023-01-01T00:08:59;2.60;;;1.38;;
39930;SDS011;26635;-35.248;149.138;2023-01-01T00:11:47;1.48;;;0.88;;
39930;SDS011;26635;-35.248;149.138;2023-01-01T00:14:18;1.30;;;0.75;;
39930;SDS011;26635;-35.248;149.138;2023-01-01T00:16:48;2.53;;;1.30;;
39930;SDS011;26635;-35.248;149.138;2023-01-01T00:19:20;1.50;;;0.85;;
39930;SDS011;26635;-35.248;149.138;2023-01-01T00:21:51;1.48;;;1.05;;
39930;SDS011;26635;-35.248;149.138;2023-01-01T00:24:22;1.30;;;0.80;;
39930;SDS011;26635;-35.248;149.138;2023-01-01T00:26:52;2.78;;;1.15;;
39930;SDS011;26635;-35.248;149.138;2023-01-01T00:29:24;1.45;;;0.77;;
39930;SDS011;26635;-35.248;149.138;2023-01-01T00:31:54;2.00;;;1.27;;
39930;SDS011;26635;-35.248;149.138;2023-01-01T00:34:24;1.10;;;0.70;;
39930;SDS011;26635;-35.248;149.138;2023-01-01T00:36:55;1.15;;;1.05;;
39930;SDS011;26635;-35.248;149.138;2023-01-01T00:39:26;1.00;;;0.77;;
39930;SDS011;26635;-35.248;149.138;2023-01-01T00:41:57;1.98;;;0.98;;
39930;SDS011;26635;-35.248;149.138;2023-01-01T00:44:28;2.65;;;0.95;;
39930;SDS011;26635;-35.248;149.138;2023-01-01T00:46:59;2.08;;;0.90;;
39930;SDS011;26635;-35.248;149.138;2023-01-01T00:49:30;1.25;;;0.80;;
39930;SDS011;26635;-35.248;149.138;2023-01-01T00:52:01;1.50;;;1.05;;
39930;SDS011;26635;-35.248;149.138;2023-01-01T00:54:31;1.17;;;0.88;;
39930;SDS011;26635;-35.248;149.138;2023-01-01T00:57:02;1.35;;;0.80;;
39930;SDS011;26635;-35.248;149.138;2023-01-01T00:59:33;3.17;;;1.27;;
39930;SDS011;26635;-35.248;149.138;2023-01-01T01:02:03;2.30;;;0.90;;
39930;SDS011;26635;-35.248;149.138;2023-01-01T01:04:34;3.88;;;1.00;;
39930;SDS011;26635;-35.248;149.138;2023-01-01T01:07:04;1.00;;;0.90;;
39930;SDS011;26635;-35.248;149.138;2023-01-01T01:09:35;1.35;;;1.02;;
39930;SDS011;26635;-35.248;149.138;2023-01-01T01:12:05;3.45;;;0.88;;
39930;SDS011;26635;-35.248;149.138;2023-01-01T01:14:45;1.88;;;1.30;;
39930;SDS011;26635;-35.248;149.138;2023-01-01T01:17:16;2.20;;;1.05;;
39930;SDS011;26635;-35.248;149.138;2023-01-01T01:19:46;1.55;;;0.95;;
39930;SDS011;26635;-35.248;149.138;2023-01-01T01:22:17;2.28;;;0.70;;
39930;SDS011;26635;-35.248;149.138;2023-01-01T01:24:54;1.75;;;0.80;;
39930;SDS011;26635;-35.248;149.138;2023-01-01T01:27:25;1.80;;;1.38;;
39930;SDS011;26635;-35.248;149.138;2023-01-01T01:29:55;1.30;;;0.90;;
39930;SDS011;26635;-35.248;149.138;2023-01-01T01:32:26;0.90;;;0.80;;
39930;SDS011;26635;-35.248;149.138;2023-01-01T01:34:56;2.88;;;1.17;;
39930;SDS011;26635;-35.248;149.138;2023-01-01T01:37:27;2.28;;;1.08;;
39930;SDS011;26635;-35.248;149.138;2023-01-01T01:39:57;3.35;;;1.08;;
39930;SDS011;26635;-35.248;149.138;2023-01-01T01:42:28;1.92;;;1.02;;
39930;SDS011;26635;-35.248;149.138;2023-01-01T01:45:01;3.45;;;1.42;;
39930;SDS011;26635;-35.248;149.138;2023-01-01T01:47:38;2.22;;;1.50;;
39930;SDS011;26635;-35.248;149.138;2023-01-01T01:50:27;2.42;;;1.45;;
39930;SDS011;26635;-35.248;149.138;2023-01-01T01:53:04;1.67;;;1.10;;
39930;SDS011;26635;-35.248;149.138;2023-01-01T01:55:40;2.15;;;1.33;;
39930;SDS011;26635;-35.248;149.138;2023-01-01T01:58:18;2.25;;;1.20;;
39930;SDS011;26635;-35.248;149.138;2023-01-01T02:00:49;2.55;;;1.70;;
39930;SDS011;26635;-35.248;149.138;2023-01-01T02:06:17;2.42;;;1.15;;
39930;SDS011;26635;-35.248;149.138;2023-01-01T02:08:49;2.72;;;1.20;;
39930;SDS011;26635;-35.248;149.138;2023-01-01T02:11:20;2.60;;;1.20;;
39930;SDS011;26635;-35.248;149.138;2023-01-01T02:13:51;2.17;;;1.30;;
39930;SDS011;26635;-35.248;149.138;2023-01-01T02:19:17;1.80;;;0.98;;
39930;SDS011;26635;-35.248;149.138;2023-01-01T02:27:27;2.22;;;1.02;;
39930;SDS011;26635;-35.248;149.138;2023-01-01T02:30:27;4.03;;;1.42;;
39930;SDS011;26635;-35.248;149.138;2023-01-01T02:33:05;1.60;;;0.93;;
39930;SDS011;26635;-35.248;149.138;2023-01-01T02:35:47;2.75;;;1.60;;
39930;SDS011;26635;-35.248;149.138;2023-01-01T02:38:35;1.80;;;1.35;;
39930;SDS011;26635;-35.248;149.138;2023-01-01T02:41:10;2.05;;;1.35;;
39930;SDS011;26635;-35.248;149.138;2023-01-01T02:43:51;3.35;;;1.27;;
39930;SDS011;26635;-35.248;149.138;2023-01-01T02:46:21;2.08;;;1.50;;
39930;SDS011;26635;-35.248;149.138;2023-01-01T02:48:52;1.60;;;1.10;;
39930;SDS011;26635;-35.248;149.138;2023-01-01T02:56:50;2.65;;;1.50;;
39930;SDS011;26635;-35.248;149.138;2023-01-01T03:08:47;2.47;;;1.70;;
39930;SDS011;26635;-35.248;149.138;2023-01-01T03:11:22;1.25;;;1.15;;
39930;SDS011;26635;-35.248;149.138;2023-01-01T03:17:50;1.95;;;1.30;;
39930;SDS011;26635;-35.248;149.138;2023-01-01T03:19:57;1.92;;;1.27;;
39930;SDS011;26635;-35.248;149.138;2023-01-01T03:22:33;1.83;;;1.33;;
39930;SDS011;26635;-35.248;149.138;2023-01-01T03:25:19;2.08;;;1.38;;
39930;SDS011;26635;-35.248;149.138;2023-01-01T03:27:53;2.45;;;1.30;;
39930;SDS011;26635;-35.248;149.138;2023-01-01T03:30:31;1.38;;;1.23;;
39930;SDS011;26635;-35.248;149.138;2023-01-01T03:33:04;2.83;;;1.60;;
39930;SDS011;26635;-35.248;149.138;2023-01-01T03:35:59;2.00;;;1.27;;
39930;SDS011;26635;-35.248;149.138;2023-01-01T03:39:19;3.65;;;1.67;;
39930;SDS011;26635;-35.248;149.138;2023-01-01T03:44:49;3.25;;;1.67;;
39930;SDS011;26635;-35.248;149.138;2023-01-01T03:47:25;2.22;;;1.45;;
39930;SDS011;26635;-35.248;149.138;2023-01-01T03:49:56;2.25;;;1.67;;
39930;SDS011;26635;-35.248;149.138;2023-01-01T04:00:49;2.22;;;1.58;;
39930;SDS011;26635;-35.248;149.138;2023-01-01T04:03:31;3.13;;;1.75;;
39930;SDS011;26635;-35.248;149.138;2023-01-01T04:06:04;3.05;;;1.50;;
39930;SDS011;26635;-35.248;149.138;2023-01-01T04:08:36;2.42;;;1.40;;
39930;SDS011;26635;-35.248;149.138;2023-01-01T04:11:09;2.47;;;1.73;;
39930;SDS011;26635;-35.248;149.138;2023-01-01T04:14:02;2.92;;;1.35;;
39930;SDS011;26635;-35.248;149.138;2023-01-01T04:16:33;1.83;;;1.38;;
39930;SDS011;26635;-35.248;149.138;2023-01-01T04:19:03;3.33;;;1.42;;
39930;SDS011;26635;-35.248;149.138;2023-01-01T04:21:37;3.05;;;1.65;;
39930;SDS011;26635;-35.248;149.138;2023-01-01T04:24:07;1.95;;;1.33;;
39930;SDS011;26635;-35.248;149.138;2023-01-01T04:26:38;3.25;;;1.48;;
39930;SDS011;26635;-35.248;149.138;2023-01-01T04:29:09;2.63;;;1.40;;
39930;SDS011;26635;-35.248;149.138;2023-01-01T04:31:39;1.98;;;1.50;;
39930;SDS011;26635;-35.248;149.138;2023-01-01T04:34:09;1.90;;;1.27;;
39930;SDS011;26635;-35.248;149.138;2023-01-01T04:36:40;1.30;;;1.00;;
39930;SDS011;26635;-35.248;149.138;2023-01-01T04:39:10;2.13;;;1.58;;
39930;SDS011;26635;-35.248;149.138;2023-01-01T04:41:41;3.15;;;1.45;;
39930;SDS011;26635;-35.248;149.138;2023-01-01T04:44:11;2.05;;;1.10;;
39930;SDS011;26635;-35.248;149.138;2023-01-01T04:46:41;2.28;;;1.58;;
39930;SDS011;26635;-35.248;149.138;2023-01-01T04:49:12;3.40;;;1.52;;
39930;SDS011;26635;-35.248;149.138;2023-01-01T04:51:42;4.00;;;1.90;;
39930;SDS011;26635;-35.248;149.138;2023-01-01T04:54:13;6.53;;;2.20;;
39930;SDS011;26635;-35.248;149.138;2023-01-01T04:56:43;3.50;;;2.00;;
39930;SDS011;26635;-35.248;149.138;2023-01-01T04:59:14;2.80;;;1.50;;
39930;SDS011;26635;-35.248;149.138;2023-01-01T05:01:44;2.70;;;1.75;;
39930;SDS011;26635;-35.248;149.138;2023-01-01T05:04:15;4.68;;;1.63;;
39930;SDS011;26635;-35.248;149.138;2023-01-01T05:06:46;4.18;;;1.95;;
39930;SDS011;26635;-35.248;149.138;2023-01-01T05:09:16;5.68;;;2.75;;
39930;SDS011;26635;-35.248;149.138;2023-01-01T05:11:46;2.92;;;1.95;;
39930;SDS011;26635;-35.248;149.138;2023-01-01T05:14:17;3.78;;;2.03;;
39930;SDS011;26635;-35.248;149.138;2023-01-01T05:16:47;5.07;;;2.05;;
39930;SDS011;26635;-35.248;149.138;2023-01-01T05:19:17;4.25;;;2.03;;
39930;SDS011;26635;-35.248;149.138;2023-01-01T05:21:48;4.07;;;2.00;;
39930;SDS011;26635;-35.248;149.138;2023-01-01T05:24:18;3.35;;;1.85;;
39930;SDS011;26635;-35.248;149.138;2023-01-01T05:26:50;3.80;;;1.77;;
39930;SDS011;26635;-35.248;149.138;2023-01-01T05:29:20;2.58;;;1.52;;
39930;SDS011;26635;-35.248;149.138;2023-01-01T05:31:51;2.92;;;2.08;;
39930;SDS011;26635;-35.248;149.138;2023-01-01T05:34:22;4.80;;;1.95;;
39930;SDS011;26635;-35.248;149.138;2023-01-01T05:36:53;3.35;;;1.95;;
39930;SDS011;26635;-35.248;149.138;2023-01-01T05:39:23;6.63;;;2.53;;
39930;SDS011;26635;-35.248;149.138;2023-01-01T05:41:54;2.13;;;1.70;;
39930;SDS011;26635;-35.248;149.138;2023-01-01T05:44:25;4.05;;;2.38;;
39930;SDS011;26635;-35.248;149.138;2023-01-01T05:46:55;6.63;;;3.00;;
39930;SDS011;26635;-35.248;149.138;2023-01-01T05:49:26;3.80;;;1.90;;
39930;SDS011;26635;-35.248;149.138;2023-01-01T05:51:56;2.67;;;1.60;;
39930;SDS011;26635;-35.248;149.138;2023-01-01T05:54:27;4.35;;;1.70;;
39930;SDS011;26635;-35.248;149.138;2023-01-01T05:56:57;3.08;;;1.58;;
39930;SDS011;26635;-35.248;149.138;2023-01-01T05:59:28;3.38;;;1.90;;
39930;SDS011;26635;-35.248;149.138;2023-01-01T06:01:58;4.25;;;1.83;;
39930;SDS011;26635;-35.248;149.138;2023-01-01T06:04:29;3.13;;;2.10;;
39930;SDS011;26635;-35.248;149.138;2023-01-01T06:06:59;5.45;;;2.13;;
39930;SDS011;26635;-35.248;149.138;2023-01-01T06:09:30;2.72;;;1.80;;
39930;SDS011;26635;-35.248;149.138;2023-01-01T06:12:13;3.78;;;1.90;;
39930;SDS011;26635;-35.248;149.138;2023-01-01T06:14:44;3.80;;;2.00;;
39930;SDS011;26635;-35.248;149.138;2023-01-01T06:17:15;5.63;;;2.05;;
39930;SDS011;26635;-35.248;149.138;2023-01-01T06:19:45;5.05;;;2.22;;
39930;SDS011;26635;-35.248;149.138;2023-01-01T06:22:16;2.35;;;1.85;;
39930;SDS011;26635;-35.248;149.138;2023-01-01T06:24:46;3.58;;;1.67;;
39930;SDS011;26635;-35.248;149.138;2023-01-01T06:27:17;3.10;;;1.67;;
39930;SDS011;26635;-35.248;149.138;2023-01-01T06:29:48;2.88;;;2.20;;
39930;SDS011;26635;-35.248;149.138;2023-01-01T06:32:18;3.90;;;2.08;;
39930;SDS011;26635;-35.248;149.138;2023-01-01T06:34:49;4.10;;;2.03;;
39930;SDS011;26635;-35.248;149.138;2023-01-01T06:37:19;3.75;;;1.90;;
39930;SDS011;26635;-35.248;149.138;2023-01-01T06:39:50;5.60;;;3.97;;
39930;SDS011;26635;-35.248;149.138;2023-01-01T06:42:20;3.90;;;2.08;;
39930;SDS011;26635;-35.248;149.138;2023-01-01T06:44:57;4.75;;;2.03;;
39930;SDS011;26635;-35.248;149.138;2023-01-01T06:47:28;4.35;;;2.45;;
39930;SDS011;26635;-35.248;149.138;2023-01-01T06:50:02;4.68;;;2.10;;
39930;SDS011;26635;-35.248;149.138;2023-01-01T06:52:32;3.92;;;1.92;;
39930;SDS011;26635;-35.248;149.138;2023-01-01T06:55:03;2.33;;;1.80;;
39930;SDS011;26635;-35.248;149.138;2023-01-01T06:57:34;2.65;;;1.80;;
39930;SDS011;26635;-35.248;149.138;2023-01-01T07:00:04;4.43;;;1.67;;
39930;SDS011;26635;-35.248;149.138;2023-01-01T07:02:35;3.63;;;1.95;;
39930;SDS011;26635;-35.248;149.138;2023-01-01T07:05:06;4.22;;;1.63;;
39930;SDS011;26635;-35.248;149.138;2023-01-01T07:07:36;2.95;;;1.60;;
39930;SDS011;26635;-35.248;149.138;2023-01-01T07:10:08;3.53;;;1.73;;
39930;SDS011;26635;-35.248;149.138;2023-01-01T07:12:38;2.65;;;1.88;;
39930;SDS011;26635;-35.248;149.138;2023-01-01T07:15:08;2.40;;;1.65;;
39930;SDS011;26635;-35.248;149.138;2023-01-01T07:17:39;4.75;;;1.60;;
39930;SDS011;26635;-35.248;149.138;2023-01-01T07:20:09;4.90;;;2.08;;
39930;SDS011;26635;-35.248;149.138;2023-01-01T07:22:40;4.10;;;2.20;;
39930;SDS011;26635;-35.248;149.138;2023-01-01T07:25:13;3.17;;;1.65;;
39930;SDS011;26635;-35.248;149.138;2023-01-01T07:27:44;3.33;;;1.35;;
39930;SDS011;26635;-35.248;149.138;2023-01-01T07:30:15;5.15;;;1.98;;
39930;SDS011;26635;-35.248;149.138;2023-01-01T07:32:46;2.33;;;1.50;;
39930;SDS011;26635;-35.248;149.138;2023-01-01T07:37:52;6.07;;;2.22;;
39930;SDS011;26635;-35.248;149.138;2023-01-01T07:40:22;2.78;;;1.73;;
39930;SDS011;26635;-35.248;149.138;2023-01-01T07:42:52;5.35;;;2.90;;
39930;SDS011;26635;-35.248;149.138;2023-01-01T07:45:23;4.13;;;2.40;;
39930;SDS011;26635;-35.248;149.138;2023-01-01T07:47:54;6.45;;;4.75;;
39930;SDS011;26635;-35.248;149.138;2023-01-01T07:50:28;3.70;;;2.53;;
39930;SDS011;26635;-35.248;149.138;2023-01-01T07:53:00;5.00;;;3.53;;
39930;SDS011;26635;-35.248;149.138;2023-01-01T07:55:31;3.10;;;2.42;;
39930;SDS011;26635;-35.248;149.138;2023-01-01T07:58:05;4.60;;;2.40;;
39930;SDS011;26635;-35.248;149.138;2023-01-01T08:00:35;3.83;;;2.83;;
39930;SDS011;26635;-35.248;149.138;2023-01-01T08:03:06;4.28;;;2.80;;
39930;SDS011;26635;-35.248;149.138;2023-01-01T08:05:39;3.40;;;2.15;;
39930;SDS011;26635;-35.248;149.138;2023-01-01T08:08:10;4.03;;;2.00;;
39930;SDS011;26635;-35.248;149.138;2023-01-01T08:10:47;2.85;;;2.42;;
39930;SDS011;26635;-35.248;149.138;2023-01-01T08:13:17;7.35;;;2.33;;
39930;SDS011;26635;-35.248;149.138;2023-01-01T08:15:48;4.65;;;3.35;;
39930;SDS011;26635;-35.248;149.138;2023-01-01T08:18:19;3.40;;;1.75;;
39930;SDS011;26635;-35.248;149.138;2023-01-01T08:20:49;3.38;;;2.05;;
39930;SDS011;26635;-35.248;149.138;2023-01-01T08:23:20;3.55;;;1.40;;
39930;SDS011;26635;-35.248;149.138;2023-01-01T08:25:50;2.72;;;1.80;;
39930;SDS011;26635;-35.248;149.138;2023-01-01T08:28:21;6.22;;;2.22;;
39930;SDS011;26635;-35.248;149.138;2023-01-01T08:30:52;3.50;;;1.83;;
39930;SDS011;26635;-35.248;149.138;2023-01-01T08:33:23;2.58;;;1.50;;
39930;SDS011;26635;-35.248;149.138;2023-01-01T08:35:54;3.60;;;1.77;;
39930;SDS011;26635;-35.248;149.138;2023-01-01T08:38:26;4.65;;;2.00;;
39930;SDS011;26635;-35.248;149.138;2023-01-01T08:40:57;3.53;;;1.85;;
39930;SDS011;26635;-35.248;149.138;2023-01-01T08:43:27;3.13;;;2.03;;
39930;SDS011;26635;-35.248;149.138;2023-01-01T08:45:57;1.85;;;1.42;;
39930;SDS011;26635;-35.248;149.138;2023-01-01T08:48:28;3.25;;;1.33;;
39930;SDS011;26635;-35.248;149.138;2023-01-01T08:51:00;4.20;;;1.48;;
39930;SDS011;26635;-35.248;149.138;2023-01-01T08:53:31;1.73;;;1.35;;
39930;SDS011;26635;-35.248;149.138;2023-01-01T08:56:03;3.75;;;2.00;;
39930;SDS011;26635;-35.248;149.138;2023-01-01T08:58:36;3.20;;;1.30;;
39930;SDS011;26635;-35.248;149.138;2023-01-01T09:01:09;2.88;;;1.33;;
39930;SDS011;26635;-35.248;149.138;2023-01-01T09:03:41;3.65;;;0.93;;
39930;SDS011;26635;-35.248;149.138;2023-01-01T09:06:12;2.53;;;1.23;;
39930;SDS011;26635;-35.248;149.138;2023-01-01T09:08:43;3.67;;;1.80;;
39930;SDS011;26635;-35.248;149.138;2023-01-01T09:11:24;3.33;;;1.63;;
39930;SDS011;26635;-35.248;149.138;2023-01-01T09:13:56;5.57;;;1.58;;
39930;SDS011;26635;-35.248;149.138;2023-01-01T09:16:28;5.25;;;1.52;;
39930;SDS011;26635;-35.248;149.138;2023-01-01T09:18:58;2.80;;;1.50;;
39930;SDS011;26635;-35.248;149.138;2023-01-01T09:21:28;2.78;;;1.35;;
39930;SDS011;26635;-35.248;149.138;2023-01-01T09:23:58;3.83;;;1.42;;
39930;SDS011;26635;-35.248;149.138;2023-01-01T09:26:29;3.80;;;2.08;;
39930;SDS011;26635;-35.248;149.138;2023-01-01T09:28:59;3.95;;;1.83;;
39930;SDS011;26635;-35.248;149.138;2023-01-01T09:31:29;2.75;;;2.13;;
39930;SDS011;26635;-35.248;149.138;2023-01-01T09:34:00;3.63;;;1.52;;
39930;SDS011;26635;-35.248;149.138;2023-01-01T09:36:30;3.42;;;1.50;;
39930;SDS011;26635;-35.248;149.138;2023-01-01T09:39:02;5.32;;;2.25;;
39930;SDS011;26635;-35.248;149.138;2023-01-01T09:41:42;3.03;;;1.65;;
39930;SDS011;26635;-35.248;149.138;2023-01-01T09:44:43;3.60;;;1.95;;
39930;SDS011;26635;-35.248;149.138;2023-01-01T09:47:37;5.55;;;1.92;;
39930;SDS011;26635;-35.248;149.138;2023-01-01T09:50:14;5.50;;;3.00;;
39930;SDS011;26635;-35.248;149.138;2023-01-01T09:53:23;3.00;;;2.00;;
39930;SDS011;26635;-35.248;149.138;2023-01-01T09:56:00;3.60;;;2.05;;
39930;SDS011;26635;-35.248;149.138;2023-01-01T09:58:34;3.78;;;1.95;;
39930;SDS011;26635;-35.248;149.138;2023-01-01T10:01:25;3.67;;;2.35;;
39930;SDS011;26635;-35.248;149.138;2023-01-01T10:04:32;4.82;;;2.30;;
39930;SDS011;26635;-35.248;149.138;2023-01-01T10:07:40;4.28;;;2.00;;
39930;SDS011;26635;-35.248;149.138;2023-01-01T10:10:26;5.10;;;2.50;;
39930;SDS011;26635;-35.248;149.138;2023-01-01T10:13:24;5.03;;;2.10;;
39930;SDS011;26635;-35.248;149.138;2023-01-01T10:16:07;6.03;;;2.22;;
39930;SDS011;26635;-35.248;149.138;2023-01-01T10:18:52;4.03;;;2.38;;
39930;SDS011;26635;-35.248;149.138;2023-01-01T10:26:43;7.53;;;2.85;;
39930;SDS011;26635;-35.248;149.138;2023-01-01T10:29:33;4.85;;;2.35;;
39930;SDS011;26635;-35.248;149.138;2023-01-01T10:35:23;4.97;;;1.98;;
39930;SDS011;26635;-35.248;149.138;2023-01-01T10:38:02;9.43;;;2.70;;
39930;SDS011;26635;-35.248;149.138;2023-01-01T10:40:34;3.80;;;2.15;;
39930;SDS011;26635;-35.248;149.138;2023-01-01T10:43:08;5.43;;;2.13;;
39930;SDS011;26635;-35.248;149.138;2023-01-01T10:45:52;9.30;;;2.72;;
39930;SDS011;26635;-35.248;149.138;2023-01-01T10:48:24;3.33;;;2.25;;
39930;SDS011;26635;-35.248;149.138;2023-01-01T10:50:59;5.15;;;2.75;;
39930;SDS011;26635;-35.248;149.138;2023-01-01T10:53:38;6.10;;;2.78;;
39930;SDS011;26635;-35.248;149.138;2023-01-01T10:56:39;4.18;;;2.63;;
39930;SDS011;26635;-35.248;149.138;2023-01-01T10:59:32;5.22;;;3.17;;
39930;SDS011;26635;-35.248;149.138;2023-01-01T11:02:47;6.75;;;3.10;;
39930;SDS011;26635;-35.248;149.138;2023-01-01T11:05:17;6.53;;;3.10;;
39930;SDS011;26635;-35.248;149.138;2023-01-01T11:07:49;6.22;;;3.35;;
39930;SDS011;26635;-35.248;149.138;2023-01-01T11:10:21;6.15;;;2.90;;
39930;SDS011;26635;-35.248;149.138;2023-01-01T11:12:59;8.38;;;3.45;;
39930;SDS011;26635;-35.248;149.138;2023-01-01T11:15:38;6.50;;;3.20;;
39930;SDS011;26635;-35.248;149.138;2023-01-01T11:18:13;9.95;;;3.58;;
39930;SDS011;26635;-35.248;149.138;2023-01-01T11:20:54;10.10;;;3.55;;
39930;SDS011;26635;-35.248;149.138;2023-01-01T11:23:36;8.93;;;3.45;;
39930;SDS011;26635;-35.248;149.138;2023-01-01T11:31:45;6.47;;;3.30;;
39930;SDS011;26635;-35.248;149.138;2023-01-01T11:36:51;11.70;;;4.30;;
39930;SDS011;26635;-35.248;149.138;2023-01-01T11:39:34;4.88;;;3.50;;
39930;SDS011;26635;-35.248;149.138;2023-01-01T11:42:06;9.50;;;3.70;;
39930;SDS011;26635;-35.248;149.138;2023-01-01T11:44:42;7.22;;;3.58;;
39930;SDS011;26635;-35.248;149.138;2023-01-01T11:47:34;8.82;;;3.28;;
39930;SDS011;26635;-35.248;149.138;2023-01-01T12:04:43;7.57;;;3.63;;
39930;SDS011;26635;-35.248;149.138;2023-01-01T12:07:22;7.00;;;3.10;;
39930;SDS011;26635;-35.248;149.138;2023-01-01T12:13:00;7.43;;;3.65;;
39930;SDS011;26635;-35.248;149.138;2023-01-01T12:15:50;6.97;;;3.22;;
39930;SDS011;26635;-35.248;149.138;2023-01-01T12:18:36;5.50;;;3.15;;
39930;SDS011;26635;-35.248;149.138;2023-01-01T12:21:18;5.72;;;2.95;;
39930;SDS011;26635;-35.248;149.138;2023-01-01T12:23:56;7.13;;;3.58;;
39930;SDS011;26635;-35.248;149.138;2023-01-01T12:34:39;11.90;;;3.80;;
39930;SDS011;26635;-35.248;149.138;2023-01-01T12:52:02;10.88;;;3.42;;
39930;SDS011;26635;-35.248;149.138;2023-01-01T13:00:13;6.32;;;3.45;;
39930;SDS011;26635;-35.248;149.138;2023-01-01T13:02:48;10.82;;;4.55;;
39930;SDS011;26635;-35.248;149.138;2023-01-01T13:05:34;9.23;;;3.15;;
39930;SDS011;26635;-35.248;149.138;2023-01-01T13:08:12;8.53;;;3.40;;
39930;SDS011;26635;-35.248;149.138;2023-01-01T13:10:46;6.93;;;3.00;;
39930;SDS011;26635;-35.248;149.138;2023-01-01T13:13:19;8.68;;;3.08;;
39930;SDS011;26635;-35.248;149.138;2023-01-01T13:15:54;6.95;;;3.88;;
39930;SDS011;26635;-35.248;149.138;2023-01-01T13:18:35;5.50;;;2.47;;
39930;SDS011;26635;-35.248;149.138;2023-01-01T13:21:27;9.95;;;3.17;;
39930;SDS011;26635;-35.248;149.138;2023-01-01T13:24:01;10.45;;;3.13;;
39930;SDS011;26635;-35.248;149.138;2023-01-01T13:26:41;7.88;;;3.60;;
39930;SDS011;26635;-35.248;149.138;2023-01-01T13:39:52;9.65;;;2.95;;
39930;SDS011;26635;-35.248;149.138;2023-01-01T13:56:18;8.85;;;2.72;;
39930;SDS011;26635;-35.248;149.138;2023-01-01T13:58:57;6.03;;;3.10;;
39930;SDS011;26635;-35.248;149.138;2023-01-01T14:04:33;7.30;;;3.20;;
39930;SDS011;26635;-35.248;149.138;2023-01-01T14:07:20;7.95;;;2.80;;
39930;SDS011;26635;-35.248;149.138;2023-01-01T14:10:25;6.95;;;3.22;;
39930;SDS011;26635;-35.248;149.138;2023-01-01T14:15:36;8.93;;;2.80;;
39930;SDS011;26635;-35.248;149.138;2023-01-01T14:18:13;5.63;;;3.40;;
39930;SDS011;26635;-35.248;149.138;2023-01-01T14:20:46;7.03;;;2.47;;
39930;SDS011;26635;-35.248;149.138;2023-01-01T14:23:27;9.95;;;2.78;;
39930;SDS011;26635;-35.248;149.138;2023-01-01T14:26:08;8.15;;;3.20;;
39930;SDS011;26635;-35.248;149.138;2023-01-01T14:28:45;9.80;;;3.50;;
39930;SDS011;26635;-35.248;149.138;2023-01-01T14:31:17;7.28;;;2.75;;
39930;SDS011;26635;-35.248;149.138;2023-01-01T14:33:51;16.33;;;4.47;;
39930;SDS011;26635;-35.248;149.138;2023-01-01T14:36:23;11.32;;;3.13;;
39930;SDS011;26635;-35.248;149.138;2023-01-01T14:41:40;15.82;;;3.55;;
39930;SDS011;26635;-35.248;149.138;2023-01-01T14:44:12;9.20;;;2.65;;
39930;SDS011;26635;-35.248;149.138;2023-01-01T14:46:48;14.00;;;3.53;;
39930;SDS011;26635;-35.248;149.138;2023-01-01T14:49:22;4.50;;;2.25;;
39930;SDS011;26635;-35.248;149.138;2023-01-01T14:52:11;7.85;;;2.53;;
39930;SDS011;26635;-35.248;149.138;2023-01-01T14:54:47;10.85;;;2.92;;
39930;SDS011;26635;-35.248;149.138;2023-01-01T14:57:19;6.25;;;2.78;;
39930;SDS011;26635;-35.248;149.138;2023-01-01T14:59:55;8.93;;;3.35;;
39930;SDS011;26635;-35.248;149.138;2023-01-01T15:02:26;6.80;;;2.47;;
39930;SDS011;26635;-35.248;149.138;2023-01-01T15:08:05;8.65;;;3.40;;
39930;SDS011;26635;-35.248;149.138;2023-01-01T15:10:50;4.47;;;2.50;;
39930;SDS011;26635;-35.248;149.138;2023-01-01T15:13:23;8.70;;;2.15;;
39930;SDS011;26635;-35.248;149.138;2023-01-01T15:15:55;5.38;;;2.17;;
39930;SDS011;26635;-35.248;149.138;2023-01-01T15:18:44;9.88;;;3.08;;
39930;SDS011;26635;-35.248;149.138;2023-01-01T15:24:13;7.25;;;3.97;;
39930;SDS011;26635;-35.248;149.138;2023-01-01T15:26:49;9.70;;;2.67;;
39930;SDS011;26635;-35.248;149.138;2023-01-01T15:32:10;5.40;;;2.40;;
39930;SDS011;26635;-35.248;149.138;2023-01-01T15:42:46;5.38;;;2.30;;
39930;SDS011;26635;-35.248;149.138;2023-01-01T15:45:49;4.00;;;2.15;;
39930;SDS011;26635;-35.248;149.138;2023-01-01T15:49:19;5.88;;;2.95;;
39930;SDS011;26635;-35.248;149.138;2023-01-01T15:51:50;8.68;;;2.78;;
39930;SDS011;26635;-35.248;149.138;2023-01-01T15:54:26;5.65;;;2.60;;
39930;SDS011;26635;-35.248;149.138;2023-01-01T15:56:58;8.93;;;3.05;;
39930;SDS011;26635;-35.248;149.138;2023-01-01T15:59:33;7.78;;;2.90;;
39930;SDS011;26635;-35.248;149.138;2023-01-01T16:02:09;11.27;;;2.55;;
39930;SDS011;26635;-35.248;149.138;2023-01-01T16:04:48;5.07;;;2.17;;
39930;SDS011;26635;-35.248;149.138;2023-01-01T16:07:20;6.00;;;2.72;;
39930;SDS011;26635;-35.248;149.138;2023-01-01T16:09:53;5.68;;;2.40;;
39930;SDS011;26635;-35.248;149.138;2023-01-01T16:12:24;11.50;;;2.42;;
39930;SDS011;26635;-35.248;149.138;2023-01-01T16:14:54;6.70;;;2.40;;
39930;SDS011;26635;-35.248;149.138;2023-01-01T16:17:25;9.40;;;2.67;;
39930;SDS011;26635;-35.248;149.138;2023-01-01T16:19:55;6.43;;;2.78;;
39930;SDS011;26635;-35.248;149.138;2023-01-01T16:22:26;5.30;;;2.75;;
39930;SDS011;26635;-35.248;149.138;2023-01-01T16:25:07;5.55;;;2.10;;
39930;SDS011;26635;-35.248;149.138;2023-01-01T16:27:48;4.63;;;2.10;;
39930;SDS011;26635;-35.248;149.138;2023-01-01T16:30:18;5.20;;;2.20;;
39930;SDS011;26635;-35.248;149.138;2023-01-01T16:32:53;9.35;;;2.53;;
39930;SDS011;26635;-35.248;149.138;2023-01-01T16:35:24;5.57;;;2.22;;
39930;SDS011;26635;-35.248;149.138;2023-01-01T16:37:55;3.60;;;1.90;;
39930;SDS011;26635;-35.248;149.138;2023-01-01T16:40:25;9.10;;;3.05;;
39930;SDS011;26635;-35.248;149.138;2023-01-01T16:43:03;6.00;;;2.85;;
39930;SDS011;26635;-35.248;149.138;2023-01-01T16:45:43;6.05;;;2.53;;
39930;SDS011;26635;-35.248;149.138;2023-01-01T16:48:13;9.10;;;2.40;;
39930;SDS011;26635;-35.248;149.138;2023-01-01T16:50:44;7.18;;;3.08;;
39930;SDS011;26635;-35.248;149.138;2023-01-01T16:53:18;6.18;;;2.50;;
39930;SDS011;26635;-35.248;149.138;2023-01-01T16:55:49;9.98;;;2.38;;
39930;SDS011;26635;-35.248;149.138;2023-01-01T16:58:20;4.30;;;2.55;;
39930;SDS011;26635;-35.248;149.138;2023-01-01T17:01:11;9.63;;;3.03;;
39930;SDS011;26635;-35.248;149.138;2023-01-01T17:03:42;6.70;;;2.78;;
39930;SDS011;26635;-35.248;149.138;2023-01-01T17:06:14;7.35;;;2.30;;
39930;SDS011;26635;-35.248;149.138;2023-01-01T17:08:45;9.23;;;3.05;;
39930;SDS011;26635;-35.248;149.138;2023-01-01T17:11:16;6.60;;;2.38;;
39930;SDS011;26635;-35.248;149.138;2023-01-01T17:13:48;7.22;;;2.50;;
39930;SDS011;26635;-35.248;149.138;2023-01-01T17:16:18;7.30;;;2.50;;
39930;SDS011;26635;-35.248;149.138;2023-01-01T17:18:54;4.63;;;2.35;;
39930;SDS011;26635;-35.248;149.138;2023-01-01T17:21:43;5.07;;;2.58;;
39930;SDS011;26635;-35.248;149.138;2023-01-01T17:24:15;6.53;;;2.33;;
39930;SDS011;26635;-35.248;149.138;2023-01-01T17:26:51;4.80;;;2.45;;
39930;SDS011;26635;-35.248;149.138;2023-01-01T17:29:24;9.32;;;3.63;;